createdAt,value
2019-03-29T00:01:51.396Z,33.37
2019-03-29T00:04:17.588Z,31.57
2019-03-29T00:06:43.686Z,37.20
2019-03-29T00:09:09.797Z,32.70
2019-03-29T00:11:36.029Z,32.80
2019-03-29T00:14:02.300Z,30.43
2019-03-29T00:16:28.399Z,29.17
2019-03-29T00:18:54.504Z,32.23
2019-03-29T00:21:20.721Z,32.80
2019-03-29T00:23:48.982Z,34.30
2019-03-29T00:26:15.215Z,32.30
2019-03-29T00:28:41.340Z,36.13
2019-03-29T00:31:07.535Z,36.87
2019-03-29T00:33:33.627Z,32.83
2019-03-29T00:35:59.947Z,31.50
2019-03-29T00:38:26.223Z,33.50
2019-03-29T00:40:52.597Z,32.03
2019-03-29T00:43:18.681Z,33.13
2019-03-29T00:45:45.178Z,32.63
2019-03-29T00:48:12.005Z,29.97
2019-03-29T00:50:38.209Z,31.50
2019-03-29T00:53:04.506Z,33.80
2019-03-29T00:55:30.586Z,31.90
2019-03-29T00:57:56.937Z,31.90
2019-03-29T01:00:24.511Z,33.40
2019-03-29T01:02:50.699Z,32.47
2019-03-29T01:05:17.000Z,33.07
2019-03-29T01:07:43.384Z,34.17
2019-03-29T01:10:09.895Z,34.50
2019-03-29T01:12:35.993Z,32.83
2019-03-29T01:15:05.196Z,35.20
2019-03-29T01:17:31.404Z,38.60
2019-03-29T01:19:57.474Z,37.43
2019-03-29T01:22:23.663Z,35.53
2019-03-29T01:24:49.845Z,38.73
2019-03-29T01:27:16.049Z,35.50
2019-03-29T01:29:42.275Z,34.67
2019-03-29T01:32:08.344Z,35.17
2019-03-29T01:34:34.554Z,36.47
2019-03-29T01:37:00.660Z,40.03
2019-03-29T01:39:26.863Z,37.33
2019-03-29T01:41:53.338Z,38.57
2019-03-29T01:44:19.563Z,40.53
2019-03-29T01:46:45.772Z,39.57
2019-03-29T01:49:11.961Z,38.03
2019-03-29T01:51:38.287Z,36.60
2019-03-29T01:54:04.542Z,36.67
2019-03-29T01:56:30.651Z,36.77
2019-03-29T01:58:56.742Z,40.90
2019-03-29T02:01:22.952Z,36.67
2019-03-29T02:03:49.184Z,40.17
2019-03-29T02:06:15.429Z,38.00
2019-03-29T02:08:41.546Z,36.87
2019-03-29T02:11:07.629Z,38.67
2019-03-29T02:13:33.745Z,40.03
2019-03-29T02:15:59.966Z,37.97
2019-03-29T02:18:26.263Z,38.97
2019-03-29T02:20:52.388Z,37.57
2019-03-29T02:23:18.499Z,39.33
2019-03-29T02:25:44.701Z,36.53
2019-03-29T02:28:11.020Z,38.57
2019-03-29T02:30:37.357Z,35.63
2019-03-29T02:33:03.665Z,34.77
2019-03-29T02:35:29.960Z,34.70
2019-03-29T02:37:56.566Z,34.43
2019-03-29T02:40:23.214Z,32.03
2019-03-29T02:42:49.463Z,32.07
2019-03-29T02:45:15.681Z,34.77
2019-03-29T02:47:42.955Z,34.37
2019-03-29T02:50:09.574Z,31.37
2019-03-29T02:52:35.819Z,33.77
2019-03-29T02:55:05.768Z,35.43
2019-03-29T02:57:31.962Z,37.33
2019-03-29T02:59:58.165Z,36.03
2019-03-29T03:02:26.559Z,38.40
2019-03-29T03:04:52.299Z,34.93
2019-03-29T03:07:18.454Z,30.67
2019-03-29T03:09:44.713Z,32.13
2019-03-29T03:12:10.819Z,32.77
2019-03-29T03:14:37.116Z,29.53
2019-03-29T03:17:03.415Z,30.50
2019-03-29T03:19:29.621Z,31.43
2019-03-29T03:21:55.744Z,32.23
2019-03-29T03:24:22.028Z,34.03
2019-03-29T03:26:48.238Z,39.20
2019-03-29T03:29:14.418Z,37.57
2019-03-29T03:31:40.627Z,38.47
2019-03-29T03:34:06.957Z,39.77
2019-03-29T03:36:33.244Z,36.47
2019-03-29T03:38:59.344Z,35.90
2019-03-29T03:41:25.651Z,34.13
2019-03-29T03:43:51.817Z,33.80
2019-03-29T03:46:18.043Z,36.30
2019-03-29T03:48:44.174Z,36.00
2019-03-29T03:51:10.458Z,33.83
2019-03-29T03:53:36.845Z,36.53
2019-03-29T03:56:03.466Z,35.70
2019-03-29T03:58:30.589Z,38.70
2019-03-29T04:00:57.216Z,38.27
2019-03-29T04:03:24.295Z,38.13
2019-03-29T04:05:50.689Z,42.07
2019-03-29T04:08:18.113Z,39.37
2019-03-29T04:10:44.371Z,38.87
2019-03-29T04:13:10.524Z,38.77
2019-03-29T04:15:36.750Z,36.90
2019-03-29T04:18:03.086Z,38.30
2019-03-29T04:20:29.621Z,35.17
2019-03-29T04:22:55.818Z,35.17
2019-03-29T04:25:22.009Z,33.53
2019-03-29T04:27:48.202Z,36.10
2019-03-29T04:30:14.495Z,34.90
2019-03-29T04:32:40.571Z,39.43
2019-03-29T04:35:07.056Z,39.40
2019-03-29T04:37:33.159Z,37.53
2019-03-29T04:40:07.561Z,40.90
2019-03-29T04:42:27.411Z,35.53
2019-03-29T04:44:53.487Z,33.37
2019-03-29T04:47:19.743Z,32.77
2019-03-29T04:49:45.861Z,34.77
2019-03-29T04:52:12.061Z,37.70
2019-03-29T04:54:38.157Z,33.67
2019-03-29T04:57:04.260Z,44.43
2019-03-29T04:59:30.360Z,35.20
2019-03-29T05:01:56.451Z,34.83
2019-03-29T05:04:22.552Z,33.37
2019-03-29T05:06:48.757Z,38.73
2019-03-29T05:09:14.867Z,37.30
2019-03-29T05:11:41.083Z,38.80
2019-03-29T05:14:07.194Z,39.73
2019-03-29T05:16:33.316Z,36.17
2019-03-29T05:18:59.531Z,34.47
2019-03-29T05:21:25.616Z,39.10
2019-03-29T05:23:51.721Z,38.90
2019-03-29T05:26:17.933Z,37.77
2019-03-29T05:28:44.126Z,38.83
2019-03-29T05:31:10.339Z,38.80
2019-03-29T05:33:36.581Z,34.43
2019-03-29T05:36:02.864Z,37.73
2019-03-29T05:38:28.950Z,35.37
2019-03-29T05:40:55.278Z,36.33
2019-03-29T05:43:21.500Z,39.00
2019-03-29T05:45:47.817Z,39.70
2019-03-29T05:48:13.922Z,36.70
2019-03-29T05:50:40.211Z,41.13
2019-03-29T05:53:06.432Z,37.60
2019-03-29T05:55:33.133Z,34.23
2019-03-29T05:57:59.262Z,36.20
2019-03-29T06:00:25.524Z,38.60
2019-03-29T06:02:51.552Z,35.07
2019-03-29T06:05:18.860Z,36.30
2019-03-29T06:07:44.960Z,38.30
2019-03-29T06:10:11.250Z,36.87
2019-03-29T06:12:37.480Z,32.97
2019-03-29T06:15:04.453Z,34.77
2019-03-29T06:17:30.771Z,31.23
2019-03-29T06:19:56.989Z,32.73
2019-03-29T06:22:23.300Z,31.17
2019-03-29T06:24:49.483Z,31.53
2019-03-29T06:27:16.704Z,30.97
2019-03-29T06:29:42.778Z,31.23
2019-03-29T06:32:08.983Z,31.07
2019-03-29T06:34:35.292Z,29.70
2019-03-29T06:37:01.874Z,32.23
2019-03-29T06:39:28.201Z,31.97
2019-03-29T06:41:54.505Z,28.93
2019-03-29T06:44:20.730Z,32.37
2019-03-29T06:46:46.927Z,29.30
2019-03-29T06:49:13.038Z,30.07
2019-03-29T06:51:39.167Z,26.53
2019-03-29T06:54:05.498Z,31.07
2019-03-29T06:56:31.617Z,26.50
2019-03-29T06:58:57.745Z,29.40
2019-03-29T07:01:23.928Z,31.07
2019-03-29T07:03:51.107Z,27.90
2019-03-29T07:06:18.325Z,30.10
2019-03-29T07:08:44.445Z,27.57
2019-03-29T07:11:17.158Z,27.33
2019-03-29T07:13:38.865Z,24.10
2019-03-29T07:16:05.003Z,24.43
2019-03-29T07:18:31.126Z,25.13
2019-03-29T07:20:57.403Z,27.40
2019-03-29T07:23:23.644Z,25.20
2019-03-29T07:25:49.880Z,36.20
2019-03-29T07:28:16.495Z,25.20
2019-03-29T07:30:42.699Z,28.47
2019-03-29T07:33:09.018Z,26.33
2019-03-29T07:35:35.151Z,26.10
2019-03-29T07:38:01.207Z,26.13
2019-03-29T07:40:27.333Z,25.47
2019-03-29T07:42:53.422Z,25.27
2019-03-29T07:45:19.721Z,25.60
2019-03-29T07:47:45.988Z,26.07
2019-03-29T07:50:12.290Z,26.57
2019-03-29T07:52:38.721Z,25.73
2019-03-29T07:55:06.167Z,26.10
2019-03-29T07:57:32.466Z,23.93
2019-03-29T07:59:58.591Z,29.73
2019-03-29T08:02:24.930Z,25.80
2019-03-29T08:04:51.283Z,25.67
2019-03-29T08:07:27.319Z,24.83
2019-03-29T08:09:45.754Z,26.33
2019-03-29T08:12:12.180Z,22.87
2019-03-29T08:14:38.419Z,25.43
2019-03-29T08:17:04.647Z,22.93
2019-03-29T08:19:30.966Z,27.77
2019-03-29T08:21:57.917Z,24.80
2019-03-29T08:24:24.461Z,24.97
2019-03-29T08:26:50.920Z,24.60
2019-03-29T08:29:17.051Z,23.40
2019-03-29T08:31:43.336Z,22.10
2019-03-29T08:34:09.648Z,22.10
2019-03-29T08:36:35.948Z,23.27
2019-03-29T08:39:04.584Z,27.27
2019-03-29T08:41:30.989Z,21.80
2019-03-29T08:43:57.212Z,24.17
2019-03-29T08:46:23.459Z,22.77
2019-03-29T08:48:49.651Z,23.77
2019-03-29T08:51:15.785Z,28.47
2019-03-29T08:53:42.024Z,25.20
2019-03-29T08:56:08.326Z,26.13
2019-03-29T08:58:34.666Z,24.80
2019-03-29T09:01:01.003Z,23.03
2019-03-29T09:03:27.519Z,23.03
2019-03-29T09:05:53.841Z,23.47
2019-03-29T09:08:20.191Z,23.57
2019-03-29T09:10:46.406Z,24.83
2019-03-29T09:13:12.617Z,24.93
2019-03-29T09:15:38.741Z,22.43
2019-03-29T09:18:04.876Z,22.90
2019-03-29T09:20:34.255Z,24.00
2019-03-29T09:22:59.409Z,23.53
2019-03-29T09:25:25.618Z,21.83
2019-03-29T09:27:51.727Z,21.27
2019-03-29T09:30:18.575Z,22.97
2019-03-29T09:32:44.891Z,22.47
2019-03-29T09:35:11.376Z,21.33
2019-03-29T09:37:37.597Z,23.07
2019-03-29T09:40:05.101Z,22.13
2019-03-29T09:42:31.298Z,23.00
2019-03-29T09:44:57.653Z,22.30
2019-03-29T09:47:23.708Z,22.03
2019-03-29T09:49:49.811Z,22.27
2019-03-29T09:52:15.907Z,21.53
2019-03-29T09:54:42.088Z,22.20
2019-03-29T09:57:09.913Z,22.77
2019-03-29T09:59:36.419Z,23.03
2019-03-29T10:02:02.734Z,21.70
2019-03-29T10:04:28.947Z,22.10
2019-03-29T10:06:55.280Z,20.87
2019-03-29T10:09:21.393Z,22.23
2019-03-29T10:11:47.525Z,21.53
2019-03-29T10:14:13.767Z,24.93
2019-03-29T10:16:39.864Z,24.43
2019-03-29T10:19:05.969Z,23.30
2019-03-29T10:21:34.118Z,22.60
2019-03-29T10:24:00.315Z,23.43
2019-03-29T10:26:26.534Z,25.90
2019-03-29T10:28:52.673Z,23.13
2019-03-29T10:31:31.504Z,25.80
2019-03-29T10:33:49.029Z,26.53
2019-03-29T10:36:15.215Z,25.27
2019-03-29T10:38:41.534Z,23.13
2019-03-29T10:41:07.804Z,23.47
2019-03-29T10:43:33.902Z,24.67
2019-03-29T10:46:00.133Z,23.77
2019-03-29T10:48:26.531Z,22.23
2019-03-29T10:50:52.737Z,22.77
2019-03-29T10:53:18.986Z,23.60
2019-03-29T10:55:45.179Z,25.23
2019-03-29T10:58:11.518Z,23.27
2019-03-29T11:00:38.925Z,22.93
2019-03-29T11:03:05.417Z,24.17
2019-03-29T11:05:31.710Z,22.63
2019-03-29T11:07:58.022Z,23.97
2019-03-29T11:10:33.986Z,23.03
2019-03-29T11:13:11.869Z,21.97
2019-03-29T11:15:29.982Z,23.93
2019-03-29T11:17:56.390Z,27.90
2019-03-29T11:20:22.634Z,22.70
2019-03-29T11:22:48.735Z,27.60
2019-03-29T11:25:15.060Z,23.73
2019-03-29T11:27:41.276Z,23.30
2019-03-29T11:30:07.640Z,24.83
2019-03-29T11:32:33.877Z,23.80
2019-03-29T11:35:00.395Z,23.03
2019-03-29T11:37:26.639Z,20.83
2019-03-29T11:39:52.836Z,22.87
2019-03-29T11:42:18.919Z,24.03
2019-03-29T11:44:45.001Z,23.07
2019-03-29T11:47:11.232Z,21.83
2019-03-29T11:49:37.623Z,23.37
2019-03-29T11:52:04.041Z,24.90
2019-03-29T11:54:30.200Z,23.27
2019-03-29T11:56:56.452Z,24.20
2019-03-29T11:59:22.658Z,24.27
2019-03-29T12:01:48.843Z,22.77
2019-03-29T12:04:15.085Z,25.03
2019-03-29T12:06:41.242Z,23.13
2019-03-29T12:09:08.648Z,24.30
2019-03-29T12:11:34.985Z,22.77
2019-03-29T12:14:04.837Z,22.67
2019-03-29T12:16:30.052Z,22.83
2019-03-29T12:18:56.261Z,22.43
2019-03-29T12:21:22.545Z,21.93
2019-03-29T12:23:48.759Z,19.57
2019-03-29T12:26:14.888Z,21.68
2019-03-29T12:28:41.017Z,21.60
2019-03-29T12:31:07.443Z,23.70
2019-03-29T12:33:33.667Z,22.97
2019-03-29T12:35:59.762Z,21.37
2019-03-29T12:38:25.884Z,20.25
2019-03-29T12:40:52.262Z,20.62
2019-03-29T12:43:18.480Z,21.07
2019-03-29T12:45:44.589Z,21.33
2019-03-29T12:48:10.683Z,22.80
2019-03-29T12:50:36.910Z,21.42
2019-03-29T12:53:03.207Z,22.20
2019-03-29T12:55:29.424Z,22.35
2019-03-29T12:57:55.848Z,23.12
2019-03-29T13:00:22.295Z,20.12
2019-03-29T13:02:48.568Z,21.68
2019-03-29T13:05:14.884Z,21.48
2019-03-29T13:07:41.084Z,21.97
2019-03-29T13:10:07.994Z,23.12
2019-03-29T13:12:34.243Z,21.30
2019-03-29T13:15:00.466Z,23.47
2019-03-29T13:17:28.592Z,23.12
2019-03-29T13:19:54.674Z,21.23
2019-03-29T13:22:21.311Z,22.87
2019-03-29T13:24:49.587Z,24.40
2019-03-29T13:27:16.110Z,22.22
2019-03-29T13:29:42.352Z,23.70
2019-03-29T13:32:08.598Z,21.50
2019-03-29T13:34:34.826Z,23.20
2019-03-29T13:37:01.112Z,22.77
2019-03-29T13:39:27.210Z,22.60
2019-03-29T13:41:53.329Z,23.90
2019-03-29T13:44:24.042Z,22.17
2019-03-29T13:46:47.813Z,23.07
2019-03-29T13:49:14.006Z,25.13
2019-03-29T13:51:40.210Z,25.30
2019-03-29T13:54:06.545Z,23.20
2019-03-29T13:56:32.879Z,21.93
2019-03-29T13:58:59.018Z,22.73
2019-03-29T14:01:25.118Z,22.63
2019-03-29T14:03:51.208Z,22.70
2019-03-29T14:06:17.410Z,22.10
2019-03-29T14:08:43.581Z,24.10
2019-03-29T14:11:09.808Z,25.77
2019-03-29T14:13:35.911Z,24.63
2019-03-29T14:16:02.095Z,22.73
2019-03-29T14:18:28.418Z,23.47
2019-03-29T14:20:54.652Z,23.30
2019-03-29T14:23:20.875Z,22.20
2019-03-29T14:25:46.953Z,21.73
2019-03-29T14:28:13.257Z,21.80
2019-03-29T14:30:39.480Z,30.60
2019-03-29T14:33:05.611Z,22.40
2019-03-29T14:35:31.888Z,25.20
2019-03-29T14:37:58.125Z,25.00
2019-03-29T14:40:24.429Z,24.20
2019-03-29T14:42:50.635Z,24.23
2019-03-29T14:45:16.885Z,23.43
2019-03-29T14:47:43.961Z,23.27
2019-03-29T14:50:10.679Z,22.23
2019-03-29T14:52:37.589Z,23.67
2019-03-29T14:55:04.915Z,24.33
2019-03-29T14:57:31.162Z,23.23
2019-03-29T14:59:57.483Z,21.60
2019-03-29T15:02:23.632Z,22.50
2019-03-29T15:04:49.807Z,22.87
2019-03-29T15:07:16.027Z,23.33
2019-03-29T15:09:42.298Z,22.03
2019-03-29T15:12:08.539Z,22.93
2019-03-29T15:14:34.730Z,19.77
2019-03-29T15:17:01.040Z,36.67
2019-03-29T15:19:27.266Z,27.07
2019-03-29T15:21:53.485Z,29.97
2019-03-29T15:24:19.662Z,22.10
2019-03-29T15:26:45.893Z,30.80
2019-03-29T15:29:12.037Z,18.05
2019-03-29T15:31:38.243Z,20.00
2019-03-29T15:34:05.460Z,19.20
2019-03-29T15:36:31.655Z,18.63
2019-03-29T15:38:57.878Z,20.77
2019-03-29T15:41:24.181Z,20.40
2019-03-29T15:43:50.424Z,20.82
2019-03-29T15:46:16.524Z,19.90
2019-03-29T15:48:42.843Z,19.10
2019-03-29T15:51:10.279Z,16.63
2019-03-29T15:53:36.524Z,18.73
2019-03-29T15:56:02.875Z,16.40
2019-03-29T15:58:29.120Z,20.00
2019-03-29T16:00:55.309Z,17.60
2019-03-29T16:03:21.491Z,23.83
2019-03-29T16:05:48.553Z,17.12
2019-03-29T16:08:15.042Z,25.70
2019-03-29T16:10:41.625Z,17.87
2019-03-29T16:13:07.999Z,20.67
2019-03-29T16:15:38.234Z,16.03
2019-03-29T16:18:02.446Z,17.07
2019-03-29T16:20:28.705Z,18.60
2019-03-29T16:22:54.932Z,19.13
2019-03-29T16:25:21.067Z,17.53
2019-03-29T16:27:47.390Z,19.10
2019-03-29T16:30:13.930Z,18.63
2019-03-29T16:32:40.108Z,19.33
2019-03-29T16:35:06.715Z,76.77
2019-03-29T16:37:32.938Z,18.93
2019-03-29T16:39:59.033Z,22.35
2019-03-29T16:42:25.143Z,18.97
2019-03-29T16:44:51.504Z,22.67
2019-03-29T16:47:17.595Z,20.12
2019-03-29T16:49:44.875Z,19.83
2019-03-29T16:52:10.985Z,19.60
2019-03-29T16:54:37.191Z,20.90
2019-03-29T16:57:03.530Z,19.10
2019-03-29T16:59:29.758Z,19.83
2019-03-29T17:01:56.114Z,22.20
2019-03-29T17:04:22.319Z,20.40
2019-03-29T17:06:48.416Z,17.97
2019-03-29T17:09:14.648Z,19.73
2019-03-29T17:11:40.897Z,18.17
2019-03-29T17:14:07.261Z,20.63
2019-03-29T17:16:33.561Z,20.27
2019-03-29T17:18:59.781Z,23.57
2019-03-29T17:21:26.975Z,23.57
2019-03-29T17:23:53.176Z,20.70
2019-03-29T17:26:19.385Z,19.70
2019-03-29T17:28:45.681Z,22.60
2019-03-29T17:31:13.982Z,22.23
2019-03-29T17:33:40.196Z,24.47
2019-03-29T17:36:06.390Z,26.07
2019-03-29T17:38:32.645Z,26.73
2019-03-29T17:40:58.874Z,23.93
2019-03-29T17:43:25.006Z,22.73
2019-03-29T17:45:51.363Z,24.90
2019-03-29T17:48:17.497Z,21.80
2019-03-29T17:50:43.812Z,19.83
2019-03-29T17:53:12.071Z,23.07
2019-03-29T17:55:38.382Z,22.70
2019-03-29T17:58:04.613Z,27.13
2019-03-29T18:00:31.039Z,26.20
2019-03-29T18:02:57.130Z,27.77
2019-03-29T18:05:23.335Z,29.17
2019-03-29T18:07:49.557Z,30.83
2019-03-29T18:10:15.997Z,25.07
2019-03-29T18:12:42.345Z,25.33
2019-03-29T18:15:09.048Z,25.80
2019-03-29T18:17:35.753Z,27.83
2019-03-29T18:20:06.963Z,67.87
2019-03-29T18:22:33.273Z,29.20
2019-03-29T18:24:59.599Z,31.87
2019-03-29T18:27:26.086Z,29.30
2019-03-29T18:29:52.484Z,30.00
2019-03-29T18:32:18.734Z,30.73
2019-03-29T18:34:45.003Z,33.27
2019-03-29T18:37:12.034Z,29.50
2019-03-29T18:39:38.440Z,48.07
2019-03-29T18:42:04.602Z,45.83
2019-03-29T18:44:30.740Z,49.33
2019-03-29T18:46:56.960Z,41.27
2019-03-29T18:49:23.119Z,34.00
2019-03-29T18:51:49.468Z,46.10
2019-03-29T18:54:15.623Z,81.30
2019-03-29T18:56:42.947Z,62.17
2019-03-29T18:59:09.068Z,45.77
2019-03-29T19:01:35.356Z,49.37
2019-03-29T19:04:01.484Z,40.43
2019-03-29T19:06:27.828Z,35.93
2019-03-29T19:08:54.063Z,34.93
2019-03-29T19:11:20.285Z,34.07
2019-03-29T19:13:46.522Z,33.40
2019-03-29T19:16:12.854Z,32.50
2019-03-29T19:18:39.088Z,36.27
2019-03-29T19:21:05.591Z,34.47
2019-03-29T19:23:31.814Z,31.93
2019-03-29T19:25:58.142Z,33.17
2019-03-29T19:28:24.481Z,38.20
2019-03-29T19:30:50.928Z,35.70
2019-03-29T19:33:17.188Z,38.43
2019-03-29T19:35:43.320Z,34.03
2019-03-29T19:38:09.535Z,41.80
2019-03-29T19:40:35.740Z,45.90
2019-03-29T19:43:02.183Z,37.30
2019-03-29T19:45:29.592Z,36.57
2019-03-29T19:47:55.809Z,34.37
2019-03-29T19:50:22.178Z,32.10
2019-03-29T19:52:48.428Z,30.50
2019-03-29T19:55:14.607Z,30.37
2019-03-29T19:57:40.940Z,31.70
2019-03-29T20:00:12.364Z,31.47
2019-03-29T20:02:38.726Z,30.93
2019-03-29T20:05:06.976Z,30.63
2019-03-29T20:07:33.300Z,31.87
2019-03-29T20:09:59.636Z,40.27
2019-03-29T20:12:26.981Z,38.03
2019-03-29T20:14:53.435Z,39.83
2019-03-29T20:17:27.359Z,36.03
2019-03-29T20:19:47.757Z,36.77
2019-03-29T20:22:16.218Z,42.83
2019-03-29T20:24:42.205Z,39.80
2019-03-29T20:27:08.480Z,33.33
2019-03-29T20:29:34.744Z,37.70
2019-03-29T20:32:01.085Z,37.77
2019-03-29T20:34:27.237Z,42.90
2019-03-29T20:36:53.469Z,37.00
2019-03-29T20:39:19.787Z,37.00
2019-03-29T20:41:46.132Z,36.07
2019-03-29T20:44:12.692Z,36.97
2019-03-29T20:46:38.928Z,37.33
2019-03-29T20:49:05.074Z,40.13
2019-03-29T20:51:31.278Z,37.33
2019-03-29T20:53:57.492Z,42.17
2019-03-29T20:56:23.731Z,41.00
2019-03-29T20:58:49.930Z,36.87
2019-03-29T21:01:16.183Z,36.33
2019-03-29T21:03:42.484Z,35.50
2019-03-29T21:06:08.890Z,36.67
2019-03-29T21:08:36.020Z,36.57
2019-03-29T21:11:02.470Z,34.67
2019-03-29T21:13:28.765Z,37.47
2019-03-29T21:15:55.089Z,36.07
2019-03-29T21:18:21.405Z,32.37
2019-03-29T21:20:47.610Z,32.70
2019-03-29T21:23:13.739Z,34.67
2019-03-29T21:25:39.818Z,34.53
2019-03-29T21:28:06.030Z,33.23
2019-03-29T21:30:32.470Z,35.23
2019-03-29T21:32:58.794Z,30.27
2019-03-29T21:35:25.018Z,33.33
2019-03-29T21:37:51.306Z,33.67
2019-03-29T21:40:17.595Z,34.53
2019-03-29T21:42:43.739Z,31.07
2019-03-29T21:45:10.357Z,32.73
2019-03-29T21:47:36.718Z,30.60
2019-03-29T21:50:05.960Z,33.43
2019-03-29T21:52:32.158Z,32.67
2019-03-29T21:54:58.365Z,31.77
2019-03-29T21:57:24.617Z,32.87
2019-03-29T21:59:51.027Z,34.97
2019-03-29T22:02:17.259Z,35.63
2019-03-29T22:04:43.561Z,31.97
2019-03-29T22:07:09.646Z,34.87
2019-03-29T22:09:37.173Z,30.77
2019-03-29T22:12:03.775Z,33.23
2019-03-29T22:14:29.881Z,30.47
2019-03-29T22:16:56.007Z,31.10
2019-03-29T22:19:22.326Z,31.00
2019-03-29T22:21:48.663Z,32.03
2019-03-29T22:24:14.871Z,36.23
2019-03-29T22:26:41.054Z,30.77
2019-03-29T22:29:07.496Z,31.30
2019-03-29T22:31:33.699Z,31.80
2019-03-29T22:34:00.027Z,32.03
2019-03-29T22:36:26.118Z,33.73
2019-03-29T22:38:52.246Z,33.67
2019-03-29T22:41:18.452Z,31.77
2019-03-29T22:43:44.575Z,30.07
2019-03-29T22:46:10.777Z,32.57
2019-03-29T22:48:51.243Z,31.77
2019-03-29T22:51:05.194Z,31.40
2019-03-29T22:53:31.318Z,34.03
2019-03-29T22:55:57.448Z,32.93
2019-03-29T22:58:23.576Z,34.27
2019-03-29T23:00:53.625Z,38.73
2019-03-29T23:03:20.175Z,36.30
2019-03-29T23:05:46.309Z,32.77
2019-03-29T23:08:12.739Z,36.37
2019-03-29T23:10:38.954Z,39.80
2019-03-29T23:13:05.254Z,35.97
2019-03-29T23:15:31.555Z,33.10
2019-03-29T23:17:57.865Z,37.07
2019-03-29T23:20:24.274Z,36.30
2019-03-29T23:22:50.388Z,38.50
2019-03-29T23:25:16.589Z,36.03
2019-03-29T23:27:42.911Z,37.70
2019-03-29T23:30:09.633Z,37.57
2019-03-29T23:32:35.951Z,38.00
2019-03-29T23:35:06.619Z,42.33
2019-03-29T23:37:32.815Z,33.70
2019-03-29T23:39:59.144Z,40.57
2019-03-29T23:42:25.375Z,36.27
2019-03-29T23:44:51.563Z,38.07
2019-03-29T23:47:17.763Z,38.07
2019-03-29T23:49:44.172Z,38.57
2019-03-29T23:52:10.276Z,36.40
2019-03-29T23:54:36.494Z,36.77
2019-03-29T23:57:02.911Z,37.97
2019-03-29T23:59:28.998Z,36.77
